首页
METAR-TAF:

METAR-TAF

机场 :

拉紹德封, 瑞士

纬度: 47-05-03N, 经度: 006-47-37E, 海拔: 1027米

当前天气观测

该预报发布于32分钟前的19:20 UTC
风速2节,风向西转西北
温度 -1°C
湿度 80%
气压 1029 hPa
能见度10公里或以上
1500米以下无云,无积雨云

METAR: LSGC 211920Z AUTO 29002KT CAVOK M01/M04 Q1029

时间: 20:52 (19:52 UTC)

预报

该预报发布于5小时和27分钟前的14:25 UTC
预报有效从21日的 15点(UTC)到 21日的 24点(UTC)
风速4节,风向西南
能见度10公里或以上
1500米以下无云,无积雨云

TAF: LSGC 211425Z 2115/2124 23004KT CAVOK

超过4000个机场的气象观测和天气预报(METAR&TAF报告)。

可查询的气象台以黄色和红色小点在地图上表示。

将鼠标移到小点上方,可查看气象台名称。

然后点击查看天气观测和预报。

如需切换地图:点击带黑十字的绿色按钮放大地图;点击带横线的绿色按钮缩小地图;或者点击绿色箭头查看邻近地区的地图。


METAR-TAF: